Time;durP1;ratioP1;P1;durP2;ratioP2;P2;SDS_P1;SDS_P2;PMS_P1;PMS_P2;Temp;Humidity;BMP_temperature;BMP_pressure;BME280_temperature;BME280_humidity;BME280_pressure;Samples;Min_cycle;Max_cycle;Signal;HPM_P1;HPM_P2
2021/12/14 00:00:39;;;;;;;105.60;24.85;;;;;;;6.97;100.00;102639.97;5028223;28;20168;-75
2021/12/14 00:03:06;;;;;;;89.35;23.33;;;;;;;7.02;100.00;102633.31;5026872;28;20067;-75
2021/12/14 00:05:33;;;;;;;85.72;25.25;;;;;;;7.03;100.00;102630.47;5027357;28;20049;-75
2021/12/14 00:08:01;;;;;;;86.43;23.98;;;;;;;7.07;100.00;102629.09;5024248;28;20625;-75
2021/12/14 00:10:46;;;;;;;97.45;24.70;;;;;;;7.09;100.00;102624.41;5005792;28;20106;-75
2021/12/14 00:13:30;;;;;;;82.35;23.70;;;;;;;7.11;100.00;102619.72;5023192;28;20029;-75
2021/12/14 00:15:57;;;;;;;89.20;24.90;;;;;;;7.11;100.00;102632.22;5006495;28;20072;-78
2021/12/14 00:18:23;;;;;;;81.85;23.65;;;;;;;7.11;100.00;102624.22;5005785;28;20033;-75
2021/12/14 00:20:54;;;;;;;85.93;25.15;;;;;;;7.13;100.00;102628.38;5017494;28;20078;-75
2021/12/14 00:24:10;;;;;;;92.15;25.60;;;;;;;7.13;100.00;102627.53;5020889;28;20025;-75
2021/12/14 00:26:16;;;;;;;95.43;26.17;;;;;;;7.14;100.00;102635.34;5009801;28;20041;-75
2021/12/14 00:28:42;;;;;;;93.10;26.13;;;;;;;7.15;100.00;102641.53;5021350;28;20033;-75
2021/12/14 00:31:14;;;;;;;94.97;26.63;;;;;;;7.17;100.00;102643.00;5008177;28;20087;-76
2021/12/14 00:33:40;;;;;;;85.78;25.67;;;;;;;7.18;100.00;102646.47;5021128;28;20029;-75
2021/12/14 00:36:09;;;;;;;96.75;25.75;;;;;;;7.18;100.00;102635.81;5021501;28;20626;-77
2021/12/14 00:38:35;;;;;;;99.18;27.70;;;;;;;7.19;100.00;102637.50;5023338;28;20021;-77
2021/12/14 00:41:09;;;;;;;82.93;24.90;;;;;;;7.19;100.00;102634.84;5014639;28;20060;-77
2021/12/14 00:43:35;;;;;;;98.45;26.83;;;;;;;7.18;100.00;102642.00;5020827;28;20056;-75
2021/12/14 00:46:02;;;;;;;80.97;24.80;;;;;;;7.17;100.00;102640.31;5024246;28;20052;-76
2021/12/14 00:48:28;;;;;;;80.63;24.05;;;;;;;7.16;100.00;102644.00;5018652;28;20600;-75
2021/12/14 00:50:57;;;;;;;90.95;26.92;;;;;;;7.16;100.00;102644.00;5018795;28;20104;-78
2021/12/14 00:53:24;;;;;;;79.10;24.63;;;;;;;7.18;100.00;102633.16;5021782;28;20136;-75
2021/12/14 00:55:55;;;;;;;85.75;25.35;;;;;;;7.16;100.00;102633.34;5022523;28;20397;-76
2021/12/14 00:58:22;;;;;;;77.32;24.00;;;;;;;7.17;100.00;102636.81;5016301;28;20492;-75
2021/12/14 01:01:13;;;;;;;85.85;24.85;;;;;;;7.11;100.00;102642.88;5020791;28;20037;-75
2021/12/14 01:03:42;;;;;;;86.00;24.98;;;;;;;7.12;100.00;102631.22;5002167;28;20145;-77
2021/12/14 01:06:10;;;;;;;97.30;26.33;;;;;;;7.15;100.00;102630.84;5023094;28;20029;-76
2021/12/14 01:08:40;;;;;;;89.30;24.95;;;;;;;7.12;100.00;102632.03;5025456;28;20037;-76
2021/12/14 01:11:22;;;;;;;80.18;24.58;;;;;;;7.09;100.00;102642.25;5012018;28;20032;-75
2021/12/14 01:13:59;;;;;;;77.85;23.83;;;;;;;7.08;100.00;102640.59;5005235;28;20022;-75
2021/12/14 01:19:38;;;;;;;82.10;24.77;;;;;;;7.09;100.00;102636.91;5020165;28;20042;-76
2021/12/14 01:27:18;;;;;;;80.28;23.60;;;;;;;7.06;100.00;102632.78;5014292;28;20394;-76
2021/12/14 01:29:44;;;;;;;85.25;24.95;;;;;;;7.09;100.00;102636.91;5002702;28;20402;-75
2021/12/14 01:32:11;;;;;;;98.68;24.48;;;;;;;7.06;100.00;102634.59;5018582;28;20573;-76
2021/12/14 01:34:38;;;;;;;93.80;23.77;;;;;;;7.01;100.00;102627.16;5015693;28;20077;-75
2021/12/14 01:37:10;;;;;;;74.53;24.05;;;;;;;6.98;100.00;102630.16;5018276;28;20030;-76
2021/12/14 01:42:22;;;;;;;87.80;24.77;;;;;;;6.98;100.00;102625.66;5014638;28;20029;-75
2021/12/14 01:44:55;;;;;;;86.30;26.15;;;;;;;6.98;100.00;102619.50;5018287;28;20053;-76
2021/12/14 01:47:42;;;;;;;87.72;24.88;;;;;;;6.94;100.00;102624.34;4998949;28;20025;-75
2021/12/14 01:50:22;;;;;;;91.30;26.10;;;;;;;6.99;100.00;102623.81;5014652;28;20393;-75
2021/12/14 01:52:48;;;;;;;76.85;23.23;;;;;;;6.98;100.00;102625.66;5022142;28;20084;-77
2021/12/14 01:55:24;;;;;;;87.03;25.50;;;;;;;6.97;100.00;102626.66;5020159;28;22012;-75
2021/12/14 01:57:53;;;;;;;83.45;25.45;;;;;;;7.01;100.00;102618.34;5003156;28;20044;-75
2021/12/14 02:00:33;;;;;;;78.13;24.05;;;;;;;7.00;100.00;102613.97;5019608;28;20033;-77
2021/12/14 02:03:02;;;;;;;80.78;25.27;;;;;;;7.04;100.00;102604.63;5018360;28;20033;-75
2021/12/14 02:05:40;;;;;;;91.93;24.77;;;;;;;7.02;100.00;102596.00;5019644;28;20045;-75
2021/12/14 02:08:21;;;;;;;86.10;25.17;;;;;;;7.01;100.00;102597.00;5005655;28;20511;-75
2021/12/14 02:10:48;;;;;;;85.22;25.73;;;;;;;6.98;100.00;102591.00;5022390;28;20068;-75
2021/12/14 02:13:30;;;;;;;77.00;25.08;;;;;;;6.97;100.00;102594.69;5010844;28;20040;-76
2021/12/14 02:15:57;;;;;;;76.95;24.52;;;;;;;7.00;100.00;102585.50;5024965;28;20029;-76
2021/12/14 02:18:25;;;;;;;78.20;24.40;;;;;;;6.99;100.00;102589.16;5022689;28;20036;-75
2021/12/14 02:21:09;;;;;;;72.68;23.52;;;;;;;6.96;100.00;102584.19;5022329;28;20056;-75
2021/12/14 02:23:39;;;;;;;76.55;22.98;;;;;;;7.01;100.00;102581.03;5015038;28;20517;-76
2021/12/14 02:26:09;;;;;;;80.95;24.17;;;;;;;6.98;100.00;102574.19;5021187;28;20032;-75
2021/12/14 02:28:35;;;;;;;70.38;22.45;;;;;;;7.00;100.00;102585.50;5005663;28;20608;-75
2021/12/14 02:31:04;;;;;;;74.00;23.63;;;;;;;7.01;100.00;102578.34;5003580;28;20041;-75
2021/12/14 02:33:35;;;;;;;73.50;24.52;;;;;;;7.00;100.00;102582.00;5024908;28;20032;-76
2021/12/14 02:36:06;;;;;;;70.05;24.52;;;;;;;6.98;100.00;102576.84;5020487;28;20653;-75
2021/12/14 02:38:32;;;;;;;72.43;23.80;;;;;;;7.00;100.00;102571.34;5013653;28;20029;-75
2021/12/14 02:41:02;;;;;;;72.55;24.15;;;;;;;7.00;100.00;102574.84;5024499;28;20037;-76
2021/12/14 02:43:41;;;;;;;66.95;24.27;;;;;;;6.98;100.00;102580.34;5020016;28;20075;-75
2021/12/14 02:46:20;;;;;;;66.25;22.52;;;;;;;6.96;100.00;102574.38;5028865;28;20029;-75
2021/12/14 02:48:50;;;;;;;61.05;22.65;;;;;;;6.97;100.00;102570.69;5027433;28;20374;-75
2021/12/14 02:51:24;;;;;;;71.65;23.27;;;;;;;6.99;100.00;102573.19;5010963;28;20028;-75
2021/12/14 02:53:55;;;;;;;68.23;22.57;;;;;;;6.96;100.00;102577.03;5010939;28;20432;-76
2021/12/14 02:56:25;;;;;;;63.63;21.67;;;;;;;6.94;100.00;102576.38;5026057;28;20037;-75
2021/12/14 02:58:58;;;;;;;62.67;22.65;;;;;;;6.95;100.00;102578.03;5024718;28;20171;-75
2021/12/14 03:01:24;;;;;;;61.95;21.58;;;;;;;6.92;100.00;102574.91;5018856;28;20029;-75
2021/12/14 03:03:50;;;;;;;60.88;21.85;;;;;;;6.93;100.00;102573.91;5002814;28;20030;-76
2021/12/14 03:06:21;;;;;;;71.50;22.40;;;;;;;6.94;100.00;102570.22;5022981;28;20025;-75
2021/12/14 03:08:57;;;;;;;61.28;21.05;;;;;;;6.94;100.00;102572.91;5024205;28;20032;-75
2021/12/14 03:11:24;;;;;;;64.25;22.25;;;;;;;6.93;100.00;102564.06;5011004;28;20025;-75
2021/12/14 03:13:52;;;;;;;64.55;21.88;;;;;;;6.95;100.00;102562.06;5020717;28;20055;-77
2021/12/14 03:16:30;;;;;;;58.00;20.58;;;;;;;6.92;100.00;102550.94;5023477;28;20044;-78
2021/12/14 03:18:59;;;;;;;65.97;21.70;;;;;;;6.94;100.00;102554.25;5005834;28;20038;-75
2021/12/14 03:21:29;;;;;;;51.78;20.73;;;;;;;6.94;100.00;102549.75;5023135;28;20478;-76
2021/12/14 03:24:06;;;;;;;54.97;20.42;;;;;;;6.93;100.00;102547.25;5021559;28;20037;-76
2021/12/14 03:26:34;;;;;;;59.20;22.38;;;;;;;6.94;100.00;102557.72;5019553;28;20022;-77
2021/12/14 03:29:07;;;;;;;57.90;20.73;;;;;;;6.94;100.00;102560.41;5024339;28;20041;-75
2021/12/14 03:31:47;;;;;;;53.20;20.25;;;;;;;6.95;100.00;102554.06;5014218;28;20424;-75
2021/12/14 03:34:13;;;;;;;58.15;19.95;;;;;;;6.96;100.00;102553.03;5012741;28;20417;-76
2021/12/14 03:36:45;;;;;;;52.45;19.80;;;;;;;6.95;100.00;102551.41;5021290;28;20032;-77
2021/12/14 03:39:19;;;;;;;50.17;19.17;;;;;;;6.96;100.00;102541.56;5019937;28;20033;-77
2021/12/14 03:41:51;;;;;;;51.88;19.65;;;;;;;7.00;100.00;102531.38;5023206;28;20104;-76
2021/12/14 03:44:21;;;;;;;43.00;18.25;;;;;;;7.00;100.00;102528.69;5006840;28;20121;-75
2021/12/14 03:47:07;;;;;;;56.10;20.05;;;;;;;6.93;100.00;102525.94;5015489;28;20064;-75
2021/12/14 03:49:41;;;;;;;45.78;18.98;;;;;;;6.95;100.00;102540.72;5024122;28;20489;-75
2021/12/14 03:52:11;;;;;;;51.13;19.13;;;;;;;6.97;100.00;102538.72;5021789;28;20370;-76
2021/12/14 03:54:38;;;;;;;47.70;18.25;;;;;;;6.97;100.00;102528.06;5023611;28;20091;-75
2021/12/14 03:57:04;;;;;;;47.00;19.05;;;;;;;6.95;100.00;102527.41;5015296;28;20034;-75
2021/12/14 03:59:31;;;;;;;44.75;19.40;;;;;;;6.95;100.00;102531.91;5014610;28;20501;-75
2021/12/14 04:01:59;;;;;;;52.03;19.77;;;;;;;6.95;100.00;102535.41;5020613;28;20609;-75
2021/12/14 04:04:33;;;;;;;46.15;18.23;;;;;;;6.94;100.00;102532.91;5020921;28;20058;-75
2021/12/14 04:07:02;;;;;;;50.80;19.02;;;;;;;6.93;100.00;102526.75;5008369;28;20110;-77
2021/12/14 04:09:31;;;;;;;51.13;18.23;;;;;;;6.94;100.00;102520.44;5001015;28;20535;-75
2021/12/14 04:11:58;;;;;;;47.70;19.00;;;;;;;6.93;100.00;102513.44;5025061;28;20033;-75
2021/12/14 04:14:30;;;;;;;47.33;19.08;;;;;;;6.93;100.00;102502.78;5019864;28;20088;-75
2021/12/14 04:16:58;;;;;;;38.95;17.23;;;;;;;6.92;100.00;102510.97;5020143;28;20038;-75
2021/12/14 04:19:28;;;;;;;38.08;17.98;;;;;;;6.91;100.00;102510.13;5007908;28;20054;-75
2021/12/14 04:21:59;;;;;;;41.72;19.15;;;;;;;6.92;100.00;102511.78;5003458;28;20025;-77
2021/12/14 04:24:32;;;;;;;44.10;18.25;;;;;;;6.92;100.00;102510.97;5024035;28;20108;-75
2021/12/14 04:27:00;;;;;;;38.35;17.75;;;;;;;6.91;100.00;102496.81;5017661;28;20033;-75
2021/12/14 04:29:27;;;;;;;45.28;18.45;;;;;;;6.92;100.00;102492.31;5017932;28;20021;-75
2021/12/14 04:31:52;;;;;;;47.25;17.92;;;;;;;6.91;100.00;102491.47;5014532;28;20084;-74
2021/12/14 04:34:20;;;;;;;40.40;18.13;;;;;;;6.89;100.00;102484.69;5014723;28;20064;-74
2021/12/14 04:36:50;;;;;;;40.72;17.65;;;;;;;6.90;100.00;102487.16;5013417;28;20033;-74
2021/12/14 04:39:34;;;;;;;43.72;19.00;;;;;;;6.89;100.00;102482.00;5010787;28;20382;-74
2021/12/14 04:53:22;;;;;;;40.35;17.83;;;;;;;6.80;100.00;102470.59;5015211;28;20068;-74
2021/12/14 04:55:50;;;;;;;39.33;16.92;;;;;;;6.80;100.00;102464.44;4992147;28;20061;-74
2021/12/14 04:58:26;;;;;;;42.88;17.88;;;;;;;6.75;100.00;102466.81;5012444;28;20030;-74
2021/12/14 05:00:52;;;;;;;42.28;17.58;;;;;;;6.76;100.00;102463.16;5011840;28;20033;-74
2021/12/14 05:03:29;;;;;;;42.53;17.77;;;;;;;6.74;100.00;102465.16;4995015;28;20457;-74
2021/12/14 05:06:09;;;;;;;43.83;18.13;;;;;;;6.76;100.00;102460.50;4997629;28;20758;-74
2021/12/14 05:11:06;;;;;;;45.15;18.60;;;;;;;6.75;100.00;102464.16;5013256;28;20033;-74
2021/12/14 05:13:48;;;;;;;46.38;18.90;;;;;;;6.71;100.00;102466.38;5003236;28;20022;-74
2021/12/14 05:16:22;;;;;;;40.67;17.67;;;;;;;6.74;100.00;102470.50;4993681;28;20118;-74
2021/12/14 05:18:51;;;;;;;42.42;17.33;;;;;;;6.74;100.00;102473.16;5015673;28;20033;-74
2021/12/14 05:21:32;;;;;;;40.53;17.13;;;;;;;6.71;100.00;102479.69;5011360;28;20100;-74
2021/12/14 05:24:00;;;;;;;39.58;17.30;;;;;;;6.74;100.00;102481.97;4995945;28;20033;-74
2021/12/14 05:26:26;;;;;;;40.88;16.17;;;;;;;6.76;100.00;102487.13;5009191;28;20026;-74
2021/12/14 05:28:52;;;;;;;32.33;15.40;;;;;;;6.73;100.00;102483.00;4997808;28;20037;-74
2021/12/14 05:31:18;;;;;;;43.72;16.98;;;;;;;6.76;100.00;102497.78;5011034;28;20029;-74
2021/12/14 05:33:44;;;;;;;40.78;17.05;;;;;;;6.74;100.00;102505.97;5011583;28;20060;-74
2021/12/14 05:36:15;;;;;;;37.40;14.80;;;;;;;6.71;100.00;102501.00;4996237;28;20535;-73
2021/12/14 05:38:59;;;;;;;35.30;15.55;;;;;;;6.75;100.00;102491.63;5003885;28;20037;-74
2021/12/14 05:44:15;;;;;;;33.10;15.10;;;;;;;6.77;100.00;102502.94;5016020;28;20039;-74
2021/12/14 05:46:42;;;;;;;37.92;15.85;;;;;;;6.76;100.00;102506.59;5017937;28;20029;-74
2021/12/14 05:49:11;;;;;;;36.80;16.10;;;;;;;6.76;100.00;102498.59;5019403;28;20029;-74
2021/12/14 05:51:37;;;;;;;37.97;16.00;;;;;;;6.77;100.00;102496.78;5018616;28;20030;-74
2021/12/14 05:54:04;;;;;;;34.65;14.77;;;;;;;6.75;100.00;102488.97;5001162;28;20033;-74
2021/12/14 05:56:31;;;;;;;36.75;14.80;;;;;;;6.77;100.00;102491.44;5014626;28;20030;-74
2021/12/14 05:58:58;;;;;;;30.63;14.13;;;;;;;6.78;100.00;102483.28;5020882;28;20471;-74
2021/12/14 06:01:28;;;;;;;33.10;14.80;;;;;;;6.75;100.00;102485.47;5019127;28;20026;-75
2021/12/14 06:04:00;;;;;;;35.08;14.88;;;;;;;6.75;99.96;102483.63;5022777;28;20033;-74
2021/12/14 06:06:34;;;;;;;37.50;14.88;;;;;;;6.73;100.00;102469.66;5001973;28;20147;-74
2021/12/14 06:09:05;;;;;;;35.83;14.82;;;;;;;6.75;99.96;102467.66;5020537;28;20038;-74
2021/12/14 06:11:31;;;;;;;33.65;13.95;;;;;;;6.73;100.00;102474.16;5012770;28;20084;-74
2021/12/14 06:13:57;;;;;;;41.30;16.67;;;;;;;6.75;100.00;102464.16;5016846;28;20037;-74
2021/12/14 06:16:30;;;;;;;34.67;15.07;;;;;;;6.72;100.00;102468.03;5002981;28;20045;-75
2021/12/14 06:19:16;;;;;;;35.72;14.50;;;;;;;6.70;100.00;102467.38;5000039;28;20030;-74
2021/12/14 06:21:43;;;;;;;35.03;12.77;;;;;;;6.73;100.00;102467.00;4992059;28;20046;-74
2021/12/14 06:24:10;;;;;;;32.13;13.95;;;;;;;6.74;100.00;102473.16;5011479;28;20037;-75
2021/12/14 06:26:39;;;;;;;32.50;14.52;;;;;;;6.72;100.00;102465.34;5013249;28;20101;-75
2021/12/14 06:29:08;;;;;;;34.60;13.40;;;;;;;6.74;99.80;102474.00;5011900;28;20112;-74
2021/12/14 06:31:34;;;;;;;34.00;14.15;;;;;;;6.73;99.90;102461.69;5008880;28;20029;-75
2021/12/14 06:34:16;;;;;;;32.50;13.90;;;;;;;6.70;99.81;102458.56;4993974;28;20618;-74
2021/12/14 06:37:15;;;;;;;32.85;13.23;;;;;;;6.67;99.90;102457.09;5011130;28;20040;-74
2021/12/14 06:40:10;;;;;;;34.80;13.82;;;;;;;6.64;99.65;102452.09;5013055;28;20108;-74
2021/12/14 06:42:46;;;;;;;34.90;14.95;;;;;;;6.66;100.00;102450.09;4994307;28;20617;-75
2021/12/14 06:45:19;;;;;;;37.20;14.57;;;;;;;6.67;99.62;102454.41;5011841;28;20112;-74
2021/12/14 06:47:47;;;;;;;32.92;14.55;;;;;;;6.66;99.78;102452.78;5013091;28;20021;-74
2021/12/14 06:50:18;;;;;;;30.27;12.95;;;;;;;6.66;99.73;102452.78;4999776;28;20509;-75
2021/12/14 06:52:53;;;;;;;31.92;14.40;;;;;;;6.66;99.84;102452.78;5000395;28;20029;-75
2021/12/14 06:55:20;;;;;;;;;;;;;;;6.59;100.00;102462.47;5016901;28;20025;-75
2021/12/14 06:57:46;;;;;;;29.23;13.23;;;;;;;6.64;99.81;102460.94;5013397;28;19956;-75
2021/12/14 07:00:12;;;;;;;34.47;13.45;;;;;;;6.65;99.69;102461.78;4999404;28;20091;-74
2021/12/14 07:02:43;;;;;;;35.63;13.55;;;;;;;6.66;99.51;102455.44;5004277;28;20667;-74
2021/12/14 07:05:20;;;;;;;33.00;13.07;;;;;;;6.65;99.42;102454.59;4994266;28;20026;-74
2021/12/14 07:07:46;;;;;;;30.08;13.50;;;;;;;6.65;99.73;102454.59;5002336;28;20021;-75
2021/12/14 07:10:12;;;;;;;34.85;13.38;;;;;;;6.68;99.71;102457.91;5012684;28;20022;-74
2021/12/14 07:12:38;;;;;;;30.65;14.02;;;;;;;6.65;99.23;102464.44;5015967;28;20026;-75
2021/12/14 07:15:12;;;;;;;29.70;13.00;;;;;;;6.64;99.58;102474.25;5014644;28;20021;-75
2021/12/14 07:17:44;;;;;;;33.25;13.77;;;;;;;6.61;99.95;102485.25;4995165;28;20080;-75
2021/12/14 07:20:30;;;;;;;31.77;13.90;;;;;;;6.62;99.62;102491.41;5004417;28;20032;-74
2021/12/14 07:23:25;;;;;;;29.33;13.23;;;;;;;6.63;99.80;102496.53;5012208;28;20036;-75
2021/12/14 07:26:00;;;;;;;27.83;12.32;;;;;;;6.68;99.53;102500.53;5015815;28;20063;-75
2021/12/14 07:28:38;;;;;;;;;;;;;;;6.60;99.83;102504.91;5012890;28;20061;-74
2021/12/14 07:31:11;;;;;;;24.02;11.38;;;;;;;6.66;99.34;102508.72;5001930;28;20019;-75
2021/12/14 07:33:36;;;;;;;27.83;12.52;;;;;;;6.66;99.72;102512.19;5010591;28;20034;-74
2021/12/14 07:36:12;;;;;;;28.50;12.48;;;;;;;6.69;99.09;102511.00;5013143;28;20108;-74
2021/12/14 07:38:50;;;;;;;27.77;11.07;;;;;;;6.67;99.35;102507.69;5010357;28;20029;-74
2021/12/14 07:41:37;;;;;;;27.85;11.10;;;;;;;6.59;98.92;102518.41;5009921;28;20398;-74
2021/12/14 07:44:13;;;;;;;27.02;11.48;;;;;;;6.66;98.72;102524.69;5012695;28;20151;-74
2021/12/14 07:46:46;;;;;;;27.77;12.27;;;;;;;6.66;98.79;102520.19;5013757;28;20060;-74
2021/12/14 07:49:40;;;;;;;26.52;12.40;;;;;;;6.63;98.64;102522.34;5011360;28;20116;-74
2021/12/14 07:52:19;;;;;;;22.98;11.45;;;;;;;6.64;98.96;102524.00;5008900;28;20029;-74
2021/12/14 07:54:59;;;;;;;24.67;11.45;;;;;;;6.66;98.91;102514.03;5001539;28;20060;-74
2021/12/14 07:57:28;;;;;;;24.65;10.85;;;;;;;6.65;98.83;102520.38;5012454;28;20022;-74
2021/12/14 08:00:14;;;;;;;28.35;11.77;;;;;;;6.64;98.83;102516.88;4995953;28;20030;-75
2021/12/14 08:02:43;;;;;;;24.83;11.82;;;;;;;6.72;98.72;102520.47;4999914;28;20954;-74
2021/12/14 08:05:22;;;;;;;26.95;11.38;;;;;;;6.70;98.40;102509.16;5010260;28;20435;-74
2021/12/14 08:08:15;;;;;;;21.63;11.05;;;;;;;6.72;98.15;102512.47;5015533;28;20026;-75
2021/12/14 08:11:27;;;;;;;26.08;11.48;;;;;;;6.73;97.69;102504.31;5000401;28;20144;-75
2021/12/14 08:14:00;;;;;;;25.77;10.40;;;;;;;6.71;97.94;102508.97;5010769;28;20030;-75
2021/12/14 08:16:26;;;;;;;27.65;11.00;;;;;;;6.68;98.25;102506.69;5002061;28;20091;-74
2021/12/14 08:18:52;;;;;;;27.33;12.43;;;;;;;6.71;98.14;102514.31;5009448;28;20033;-75
2021/12/14 08:21:23;;;;;;;23.63;11.23;;;;;;;6.67;98.03;102523.69;5011409;28;20091;-74
2021/12/14 08:23:58;;;;;;;26.40;11.98;;;;;;;6.68;98.56;102512.00;4999680;28;20061;-75
2021/12/14 08:26:26;;;;;;;24.77;11.50;;;;;;;6.73;98.26;102520.28;4993273;28;20024;-74
2021/12/14 08:28:58;;;;;;;27.52;12.23;;;;;;;6.71;98.28;102526.81;4992932;28;20041;-75
2021/12/14 08:31:38;;;;;;;27.52;11.13;;;;;;;6.72;98.02;102523.13;5010187;28;20084;-75
2021/12/14 08:34:08;;;;;;;23.48;10.25;;;;;;;6.73;97.92;102530.94;5010065;28;20030;-74
2021/12/14 08:36:40;;;;;;;22.10;10.75;;;;;;;6.69;98.44;102528.81;5012715;28;20037;-74
2021/12/14 08:39:19;;;;;;;22.73;10.45;;;;;;;6.70;98.32;102527.81;5009034;28;20049;-74
2021/12/14 08:41:51;;;;;;;22.52;10.85;;;;;;;6.75;98.28;102538.75;4991582;28;20498;-75
2021/12/14 08:44:36;;;;;;;25.70;10.88;;;;;;;6.72;97.88;102529.28;5010100;28;20038;-74
2021/12/14 08:47:11;;;;;;;29.50;11.23;;;;;;;6.72;97.93;102525.78;4992294;28;20034;-74
2021/12/14 08:49:39;;;;;;;23.88;11.48;;;;;;;6.71;97.92;102527.63;4992086;28;20076;-75
2021/12/14 08:52:05;;;;;;;23.83;10.57;;;;;;;6.70;98.08;102530.47;4992351;28;20034;-75
2021/12/14 08:54:34;;;;;;;23.73;10.68;;;;;;;6.74;97.96;102516.63;5012083;28;20047;-75
2021/12/14 08:57:24;;;;;;;24.83;11.07;;;;;;;6.68;98.06;102516.50;4994858;28;20394;-75
2021/12/14 08:59:58;;;;;;;23.58;10.20;;;;;;;6.69;97.80;102512.84;4999574;28;20088;-74
2021/12/14 09:02:25;;;;;;;23.33;10.37;;;;;;;6.65;98.08;102515.88;5009079;28;20021;-75
2021/12/14 09:04:57;;;;;;;21.58;9.93;;;;;;;6.74;97.59;102513.94;5009311;28;20025;-74
2021/12/14 09:07:27;;;;;;;22.65;11.15;;;;;;;6.71;97.76;102505.50;5008913;28;20589;-74
2021/12/14 09:09:53;;;;;;;23.08;9.98;;;;;;;6.71;97.75;102502.84;5009097;28;20619;-74
2021/12/14 09:12:24;;;;;;;23.58;10.25;;;;;;;6.69;97.71;102503.00;4998568;28;20033;-74
2021/12/14 09:14:51;;;;;;;23.50;10.15;;;;;;;6.73;97.86;102500.81;4996038;28;20033;-74
2021/12/14 09:17:19;;;;;;;21.15;10.50;;;;;;;6.74;97.35;102511.28;4994489;28;20047;-75
2021/12/14 09:20:11;;;;;;;22.60;9.77;;;;;;;6.64;97.38;102522.19;5012232;28;20075;-74
2021/12/14 09:22:41;;;;;;;24.55;9.93;;;;;;;6.74;97.89;102516.63;4993294;28;20028;-75
2021/12/14 09:25:11;;;;;;;20.63;10.10;;;;;;;6.77;97.41;102507.44;5013142;28;20025;-74
2021/12/14 09:27:38;;;;;;;22.85;10.95;;;;;;;6.78;96.76;102495.75;5011761;28;20033;-74
2021/12/14 09:30:06;;;;;;;24.30;9.80;;;;;;;6.74;96.69;102505.97;5010387;28;20195;-74
2021/12/14 09:32:34;;;;;;;24.05;9.60;;;;;;;6.74;97.46;102510.47;5012255;28;20037;-74
2021/12/14 09:35:01;;;;;;;25.92;11.02;;;;;;;6.76;96.92;102514.59;4995258;28;20041;-74
2021/12/14 09:37:28;;;;;;;20.63;9.63;;;;;;;6.76;97.14;102505.78;4995770;28;20056;-74
2021/12/14 09:39:57;;;;;;;24.50;9.90;;;;;;;6.77;97.25;102496.78;5011576;28;20029;-74
2021/12/14 09:42:31;;;;;;;23.33;10.57;;;;;;;6.79;96.96;102497.41;5011096;28;20026;-74
2021/12/14 09:45:01;;;;;;;21.60;9.75;;;;;;;6.84;96.69;102490.56;5010824;28;20033;-74
2021/12/14 09:47:30;;;;;;;21.08;10.30;;;;;;;6.82;96.80;102489.91;4995448;28;20080;-74
2021/12/14 09:49:58;;;;;;;25.05;10.82;;;;;;;6.80;96.66;102483.91;5011347;28;20665;-74
2021/12/14 09:52:29;;;;;;;23.45;10.18;;;;;;;6.81;96.61;102474.09;5009731;28;20028;-75
2021/12/14 09:54:56;;;;;;;25.52;10.32;;;;;;;6.81;96.61;102490.06;5011159;28;20029;-75
2021/12/14 09:57:32;;;;;;;26.15;10.50;;;;;;;6.79;96.75;102489.44;4999386;28;20464;-74
2021/12/14 10:00:00;;;;;;;21.10;9.55;;;;;;;6.85;96.18;102489.56;5000630;28;20092;-74
2021/12/14 10:02:33;;;;;;;24.05;10.07;;;;;;;6.85;96.53;102476.22;5011369;28;20125;-74
2021/12/14 10:05:06;;;;;;;22.23;9.50;;;;;;;6.87;96.33;102466.22;4992766;28;20131;-74
2021/12/14 10:07:32;;;;;;;23.80;10.35;;;;;;;6.88;96.67;102467.88;5010612;28;20033;-75
2021/12/14 10:10:00;;;;;;;22.52;10.27;;;;;;;6.92;96.22;102463.81;5011205;28;20049;-74
2021/12/14 10:15:13;;;;;;;25.77;10.07;;;;;;;6.94;96.21;102468.97;5012336;28;20038;-74
2021/12/14 10:17:41;;;;;;;19.10;9.60;;;;;;;6.98;96.32;102471.06;5010437;28;20021;-74
2021/12/14 10:20:12;;;;;;;23.17;10.38;;;;;;;7.02;96.06;102468.06;5011201;28;20099;-74
2021/12/14 10:22:39;;;;;;;24.85;10.38;;;;;;;7.06;95.79;102472.84;5010159;28;20085;-74
2021/12/14 10:25:10;;;;;;;20.42;9.65;;;;;;;7.08;95.65;102470.00;5013240;28;20021;-74
2021/12/14 10:27:37;;;;;;;23.83;9.93;;;;;;;7.06;95.54;102480.84;4996780;28;20021;-74
2021/12/14 10:30:15;;;;;;;19.98;8.85;;;;;;;7.02;95.43;102484.06;5002057;28;20021;-74
2021/12/14 10:32:41;;;;;;;20.98;10.13;;;;;;;7.10;95.38;102483.97;5013424;28;20037;-74
2021/12/14 10:35:16;;;;;;;21.65;9.82;;;;;;;7.11;95.57;102480.28;5002078;28;20616;-74
2021/12/14 10:37:54;;;;;;;;;;;;;;;7.04;95.59;102480.22;5014474;28;20148;-74
2021/12/14 10:43:17;;;;;;;;;;;;;;;7.14;94.99;102453.25;5012428;28;20040;-74
2021/12/14 10:45:57;;;;;;;23.33;9.48;;;;;;;7.24;94.75;102449.31;5014610;28;19959;-74
2021/12/14 10:48:27;;;;;;;17.27;8.15;;;;;;;7.30;94.39;102447.75;5013414;28;20063;-74
2021/12/14 10:50:54;;;;;;;21.42;10.40;;;;;;;7.32;94.58;102451.06;5015259;28;20057;-75
2021/12/14 10:53:21;;;;;;;18.60;9.52;;;;;;;7.35;94.13;102453.34;4999403;28;20064;-74
2021/12/14 10:55:52;;;;;;;21.17;9.73;;;;;;;7.31;94.10;102453.91;5006462;28;20033;-74
2021/12/14 10:58:21;;;;;;;17.40;8.35;;;;;;;7.34;93.62;102459.69;5013740;28;20030;-74
2021/12/14 11:00:53;;;;;;;16.20;8.15;;;;;;;7.33;93.55;102462.53;5015625;28;20616;-74
2021/12/14 11:03:25;;;;;;;16.05;8.25;;;;;;;7.34;93.44;102462.34;5012561;28;20080;-75
2021/12/14 11:05:55;;;;;;;19.23;7.70;;;;;;;7.32;93.35;102456.38;5016403;28;20104;-75
2021/12/14 11:11:14;;;;;;;16.73;8.15;;;;;;;7.40;93.12;102452.81;5014164;28;20043;-74
2021/12/14 11:13:50;;;;;;;16.80;8.13;;;;;;;7.33;92.08;102441.22;5012341;28;20032;-74
2021/12/14 11:16:33;;;;;;;17.08;8.45;;;;;;;7.41;92.61;102444.63;5012620;28;20615;-74
2021/12/14 11:19:03;;;;;;;14.80;7.50;;;;;;;7.43;92.63;102428.44;4994925;28;20513;-74
2021/12/14 11:21:30;;;;;;;15.90;8.30;;;;;;;7.41;92.38;102433.13;5014872;28;20026;-74
2021/12/14 11:23:56;;;;;;;18.05;8.55;;;;;;;7.38;91.66;102438.84;5002735;28;20041;-74
2021/12/14 11:26:32;;;;;;;16.70;8.35;;;;;;;7.41;91.58;102441.97;5001764;28;20013;-74
2021/12/14 11:29:09;;;;;;;14.32;7.45;;;;;;;7.43;91.75;102444.44;5010715;28;20037;-74
2021/12/14 11:31:43;;;;;;;14.07;7.40;;;;;;;7.45;91.53;102442.41;5013772;28;20491;-74
2021/12/14 11:34:12;;;;;;;16.38;8.43;;;;;;;7.51;91.77;102447.00;5013500;28;20087;-75
2021/12/14 11:37:02;;;;;;;15.95;8.40;;;;;;;7.53;91.74;102437.78;5012799;28;20021;-74
2021/12/14 11:39:34;;;;;;;17.27;8.40;;;;;;;7.60;91.71;102442.38;5001822;28;20032;-74
2021/12/14 11:42:07;;;;;;;16.52;9.30;;;;;;;7.62;91.45;102446.53;4995720;28;20132;-74
2021/12/14 11:44:38;;;;;;;16.90;8.98;;;;;;;7.64;91.45;102443.66;5014922;28;20490;-74
2021/12/14 11:47:33;;;;;;;18.65;9.48;;;;;;;7.63;91.35;102442.00;5014082;28;20556;-74
2021/12/14 11:49:57;;;;;;;17.83;8.10;;;;;;;7.60;91.19;102447.72;5013327;28;20038;-74
2021/12/14 11:52:50;;;;;;;17.88;9.60;;;;;;;7.60;90.93;102442.38;5011904;28;20028;-74
2021/12/14 11:55:26;;;;;;;20.17;10.02;;;;;;;7.60;90.83;102437.06;4995648;28;20508;-74
2021/12/14 11:58:04;;;;;;;20.98;9.57;;;;;;;7.57;91.13;102433.75;5012234;28;20029;-75
2021/12/14 12:00:31;;;;;;;19.17;9.30;;;;;;;7.64;91.16;102436.50;5012489;28;20594;-74
2021/12/14 12:02:56;;;;;;;21.73;9.43;;;;;;;7.63;91.17;102436.69;4990025;28;20475;-74
2021/12/14 12:05:30;;;;;;;19.38;10.38;;;;;;;7.64;91.02;102433.81;5000937;28;20025;-74
2021/12/14 12:11:03;;;;;;;19.90;9.75;;;;;;;7.66;90.87;102436.31;5013760;28;20053;-74
2021/12/14 12:13:38;;;;;;;19.73;10.07;;;;;;;7.63;90.77;102434.00;5011472;28;20472;-74
2021/12/14 12:16:21;;;;;;;20.92;10.02;;;;;;;7.62;90.81;102445.69;5013770;28;20026;-74